Time;durP1;ratioP1;P1;durP2;ratioP2;P2;SDS_P1;SDS_P2;PMS_P1;PMS_P2;Temp;Humidity;BMP_temperature;BMP_pressure;BME280_temperature;BME280_humidity;BME280_pressure;Samples;Min_cycle;Max_cycle;Signal;HPM_P1;HPM_P2
2022/05/11 00:00:43;;;;;;;5.22;2.03;;;13.20;99.90;;;;;;5116912;28;19907;-92
2022/05/11 00:03:10;;;;;;;6.70;1.50;;;13.10;99.90;;;;;;5113453;28;20066;-92
2022/05/11 00:05:36;;;;;;;9.32;2.25;;;13.10;99.90;;;;;;5114237;28;20080;-92
2022/05/11 00:08:03;;;;;;;;;;;13.00;99.90;;;;;;5115403;28;20030;-90
2022/05/11 00:10:28;;;;;;;4.43;2.20;;;13.00;99.90;;;;;;5115117;28;19956;-90
2022/05/11 00:12:54;;;;;;;;;;;13.00;99.90;;;;;;5133668;28;20039;-91
2022/05/11 00:15:22;;;;;;;4.15;1.88;;;12.90;99.90;;;;;;5117801;27;19907;-89
2022/05/11 00:17:49;;;;;;;3.88;1.58;;;12.90;99.90;;;;;;5120488;27;20026;-91
2022/05/11 00:20:16;;;;;;;3.53;1.98;;;12.90;99.90;;;;;;5121631;27;20023;-90
2022/05/11 00:22:45;;;;;;;5.60;1.90;;;12.90;99.90;;;;;;5139417;27;20032;-90
2022/05/11 00:25:13;;;;;;;7.60;2.13;;;12.90;99.90;;;;;;5114082;27;20409;-92
2022/05/11 00:27:39;;;;;;;6.60;1.60;;;12.90;99.90;;;;;;5133206;27;20057;-92
2022/05/11 00:30:05;;;;;;;;;;;12.90;99.90;;;;;;5119708;27;20520;-93
2022/05/11 00:32:31;;;;;;;4.03;1.70;;;12.90;99.90;;;;;;5138196;27;19933;-93
2022/05/11 00:34:56;;;;;;;;;;;12.90;99.90;;;;;;5133307;27;20041;-91
2022/05/11 00:37:23;;;;;;;10.52;2.13;;;12.90;99.90;;;;;;5148698;27;19950;-91
2022/05/11 00:39:50;;;;;;;6.13;2.75;;;12.90;99.90;;;;;;5146923;27;20027;-91
2022/05/11 00:42:16;;;;;;;3.05;1.60;;;13.00;99.90;;;;;;5146685;27;20109;-91
2022/05/11 00:44:45;;;;;;;;;;;13.00;99.90;;;;;;5129295;27;20500;-92
2022/05/11 00:47:25;;;;;;;6.22;1.92;;;12.90;99.90;;;;;;5131435;27;19903;-92
2022/05/11 00:49:57;;;;;;;3.67;2.03;;;13.00;99.90;;;;;;5149360;27;20023;-93
2022/05/11 00:52:34;;;;;;;5.38;1.77;;;12.90;99.90;;;;;;5132146;27;20047;-92
2022/05/11 00:55:06;;;;;;;10.75;2.53;;;12.90;99.90;;;;;;5132539;27;20038;-92
2022/05/11 00:57:43;;;;;;;7.25;1.90;;;12.90;99.90;;;;;;5126781;27;20031;-92
2022/05/11 01:00:13;;;;;;;7.57;1.83;;;12.90;99.90;;;;;;5127215;27;20031;-92
2022/05/11 01:02:44;;;;;;;5.85;2.10;;;12.90;99.90;;;;;;5126062;27;20053;-92
2022/05/11 01:05:10;;;;;;;5.18;1.85;;;12.90;99.90;;;;;;5126670;27;20034;-91
2022/05/11 01:07:37;;;;;;;4.68;1.90;;;12.90;99.90;;;;;;5122931;27;20035;-91
2022/05/11 01:10:05;;;;;;;6.70;2.13;;;12.90;99.90;;;;;;5124272;27;20019;-91
2022/05/11 01:12:44;;;;;;;6.88;1.90;;;12.90;99.90;;;;;;5123933;27;20035;-91
2022/05/11 01:15:12;;;;;;;4.22;1.60;;;12.90;99.90;;;;;;5123780;27;20031;-92
2022/05/11 01:17:39;;;;;;;5.85;1.60;;;12.90;99.90;;;;;;5141913;27;20099;-92
2022/05/11 01:20:08;;;;;;;2.53;1.60;;;12.90;99.90;;;;;;5123292;27;20117;-92
2022/05/11 01:22:43;;;;;;;5.35;1.90;;;12.80;99.90;;;;;;5116676;27;20123;-91
2022/05/11 01:25:11;;;;;;;5.88;1.45;;;12.80;99.90;;;;;;5116364;27;20019;-93
2022/05/11 01:27:40;;;;;;;5.20;1.52;;;12.80;99.90;;;;;;5116589;27;20042;-90
2022/05/11 01:30:21;;;;;;;9.57;1.85;;;12.80;99.90;;;;;;5116842;27;20027;-92
2022/05/11 01:32:55;;;;;;;11.10;2.03;;;12.80;99.90;;;;;;5116533;27;20096;-90
2022/05/11 01:35:36;;;;;;;6.47;1.50;;;12.70;99.90;;;;;;5115890;27;20019;-90
2022/05/11 01:38:39;;;;;;;3.33;1.45;;;12.70;99.90;;;;;;5116092;27;20061;-89
2022/05/11 01:41:06;;;;;;;4.97;1.70;;;12.70;99.90;;;;;;5095121;27;20046;-92
2022/05/11 01:43:34;;;;;;;12.02;2.25;;;12.60;99.90;;;;;;5116843;27;20106;-92
2022/05/11 01:46:00;;;;;;;10.40;2.30;;;12.60;99.90;;;;;;5116862;27;20115;-92
2022/05/11 01:48:26;;;;;;;;;;;12.60;99.90;;;;;;5117410;27;20019;-87
2022/05/11 01:50:53;;;;;;;8.07;1.90;;;12.50;99.90;;;;;;5115829;27;19903;-88
2022/05/11 01:53:19;;;;;;;5.15;2.45;;;12.50;99.90;;;;;;5116407;27;20103;-90
2022/05/11 01:55:45;;;;;;;6.07;1.95;;;12.40;99.90;;;;;;5122840;27;20519;-90
2022/05/11 01:58:14;;;;;;;;;;;12.40;99.90;;;;;;5115458;27;20084;-90
2022/05/11 02:00:42;;;;;;;11.35;1.98;;;12.30;99.90;;;;;;5115377;27;20002;-89
2022/05/11 02:03:08;;;;;;;6.43;1.70;;;12.30;99.90;;;;;;5114959;27;20051;-89
2022/05/11 02:08:18;;;;;;;10.27;1.95;;;12.30;99.90;;;;;;5133689;27;19944;-89
2022/05/11 02:10:43;;;;;;;;;;;12.20;99.90;;;;;;5116041;27;20027;-89
2022/05/11 02:13:09;;;;;;;7.45;2.05;;;12.30;99.90;;;;;;5114807;27;20696;-90
2022/05/11 02:15:36;;;;;;;;;;;12.20;99.90;;;;;;5125418;27;20459;-88
2022/05/11 02:18:02;;;;;;;7.50;2.10;;;12.20;99.90;;;;;;5116058;27;19950;-89
2022/05/11 02:20:28;;;;;;;4.85;2.00;;;12.20;99.90;;;;;;5114835;27;20578;-89
2022/05/11 02:22:54;;;;;;;;;;;12.10;99.90;;;;;;5115167;27;20034;-88
2022/05/11 02:25:20;;;;;;;10.00;2.15;;;12.20;99.90;;;;;;5115021;27;19946;-89
2022/05/11 02:27:48;;;;;;;9.07;2.13;;;12.10;99.90;;;;;;5115079;27;20110;-88
2022/05/11 02:30:16;;;;;;;7.18;1.77;;;12.10;99.90;;;;;;5114609;27;20027;-89
2022/05/11 02:32:42;;;;;;;4.25;1.40;;;12.10;99.90;;;;;;5115202;27;20031;-88
2022/05/11 02:35:14;;;;;;;;;;;12.10;99.90;;;;;;5114856;27;20075;-88
2022/05/11 02:37:45;;;;;;;4.03;1.40;;;12.00;99.90;;;;;;5114074;27;19910;-88
2022/05/11 02:40:14;;;;;;;4.72;1.55;;;12.00;99.90;;;;;;5114084;27;20031;-87
2022/05/11 02:42:40;;;;;;;5.57;1.63;;;12.00;99.90;;;;;;5114652;27;20031;-89
2022/05/11 02:45:06;;;;;;;;;;;12.00;99.90;;;;;;5114956;27;20079;-89
2022/05/11 02:47:31;;;;;;;5.77;2.40;;;12.00;99.90;;;;;;5114542;27;20371;-87
2022/05/11 02:49:57;;;;;;;;;;;11.90;99.90;;;;;;5114778;27;20098;-88
2022/05/11 02:52:23;;;;;;;9.95;2.33;;;11.90;99.90;;;;;;5114353;28;20387;-88
2022/05/11 02:54:48;;;;;;;;;;;11.90;99.90;;;;;;5114944;27;20019;-88
2022/05/11 02:57:16;;;;;;;4.15;1.80;;;11.90;99.90;;;;;;5114667;28;20373;-89
2022/05/11 02:59:44;;;;;;;6.82;1.92;;;11.80;99.90;;;;;;5121211;27;20039;-90
2022/05/11 03:02:10;;;;;;;7.57;2.05;;;11.80;99.90;;;;;;5117896;27;20027;-90
2022/05/11 03:04:36;;;;;;;3.83;1.83;;;11.70;99.90;;;;;;5115686;27;20023;-90
2022/05/11 03:07:01;;;;;;;;;;;11.70;99.90;;;;;;5120582;28;20110;-91
2022/05/11 03:09:27;;;;;;;6.15;2.42;;;11.70;99.90;;;;;;5113697;28;19907;-90
2022/05/11 03:11:52;;;;;;;;;;;11.60;99.90;;;;;;5116477;28;20031;-90
2022/05/11 03:14:18;;;;;;;8.57;2.35;;;11.60;99.90;;;;;;5117234;28;20272;-90
2022/05/11 03:16:44;;;;;;;;;;;11.60;99.90;;;;;;5114742;28;20700;-91
2022/05/11 03:19:09;;;;;;;5.97;1.80;;;11.60;99.90;;;;;;5114658;28;19915;-91
2022/05/11 03:21:36;;;;;;;;;;;11.50;99.90;;;;;;5114880;28;20440;-90
2022/05/11 03:24:02;;;;;;;3.97;2.30;;;11.60;99.90;;;;;;5114083;28;19903;-91
2022/05/11 03:26:28;;;;;;;;;;;11.60;99.90;;;;;;5114932;28;20372;-91
2022/05/11 03:28:53;;;;;;;11.43;2.00;;;11.60;99.90;;;;;;5107844;28;19907;-92
2022/05/11 03:31:19;;;;;;;;;;;11.60;99.90;;;;;;5122545;28;20039;-90
2022/05/11 03:36:31;;;;;;;4.90;1.92;;;11.70;99.90;;;;;;5145065;28;20041;-90
2022/05/11 03:38:57;;;;;;;5.35;1.85;;;11.70;99.90;;;;;;5121595;28;20031;-91
2022/05/11 03:41:23;;;;;;;;;;;11.80;99.90;;;;;;5129587;28;20027;-91
2022/05/11 03:43:48;;;;;;;10.27;2.67;;;11.80;99.90;;;;;;5094108;28;20268;-91
2022/05/11 03:46:15;;;;;;;;;;;11.90;99.90;;;;;;5113048;28;20310;-92
2022/05/11 03:48:41;;;;;;;4.97;2.40;;;12.00;99.90;;;;;;5114358;28;20287;-92
2022/05/11 03:51:07;;;;;;;7.00;2.45;;;12.10;99.90;;;;;;5117016;27;20023;-88
2022/05/11 03:53:33;;;;;;;;;;;12.20;99.90;;;;;;5117472;27;20100;-89
2022/05/11 03:55:59;;;;;;;15.00;1.95;;;12.20;99.90;;;;;;5134994;27;19943;-90
2022/05/11 03:58:24;;;;;;;;;;;12.40;99.90;;;;;;5118548;27;20104;-91
2022/05/11 04:00:51;;;;;;;3.97;1.50;;;12.40;99.90;;;;;;5117326;27;19907;-91
2022/05/11 04:03:16;;;;;;;7.07;2.30;;;12.50;99.90;;;;;;5117409;27;20487;-92
2022/05/11 04:05:42;;;;;;;;;;;12.60;99.90;;;;;;5117996;27;20118;-91
2022/05/11 04:08:08;;;;;;;11.00;3.97;;;12.70;99.90;;;;;;5146302;27;19951;-90
2022/05/11 04:10:33;;;;;;;;;;;12.70;99.90;;;;;;5119250;27;20027;-92
2022/05/11 04:13:04;;;;;;;20.73;11.18;;;12.80;99.90;;;;;;5117664;27;20415;-90
2022/05/11 04:15:30;;;;;;;23.17;12.88;;;12.90;99.90;;;;;;5125415;27;20525;-88
2022/05/11 04:17:57;;;;;;;25.40;13.82;;;13.00;99.90;;;;;;5116522;27;20487;-88
2022/05/11 04:20:23;;;;;;;28.10;16.25;;;13.10;99.90;;;;;;5135687;27;20034;-89
2022/05/11 04:22:48;;;;;;;;;;;13.20;99.90;;;;;;5129330;27;20015;-89
2022/05/11 04:25:16;;;;;;;23.38;12.75;;;13.40;99.90;;;;;;5123236;27;19926;-91
2022/05/11 04:27:46;;;;;;;17.85;8.98;;;13.60;99.90;;;;;;5117813;27;20029;-90
2022/05/11 04:30:14;;;;;;;29.73;15.82;;;13.80;99.90;;;;;;5121774;27;20015;-86
2022/05/11 04:32:39;;;;;;;35.00;19.42;;;14.10;99.90;;;;;;5115327;27;20543;-89
2022/05/11 04:35:05;;;;;;;;;;;14.30;99.90;;;;;;5117495;27;20025;-88
2022/05/11 04:37:31;;;;;;;35.17;21.73;;;14.60;99.90;;;;;;5116793;27;19903;-88
2022/05/11 04:39:57;;;;;;;33.65;19.15;;;14.80;99.90;;;;;;5116812;27;20114;-89
2022/05/11 04:42:23;;;;;;;25.75;15.63;;;15.10;99.90;;;;;;5116651;27;20035;-88
2022/05/11 04:44:48;;;;;;;28.08;12.05;;;15.40;99.90;;;;;;5117514;27;20046;-88
2022/05/11 04:47:16;;;;;;;;;;;15.60;99.90;;;;;;5117640;27;20027;-87
2022/05/11 04:49:42;;;;;;;12.35;7.18;;;15.80;99.90;;;;;;5116050;27;19907;-86
2022/05/11 04:52:10;;;;;;;;;;;15.90;99.90;;;;;;5126405;27;20027;-89
2022/05/11 04:54:40;;;;;;;11.10;6.78;;;16.10;99.90;;;;;;5121610;27;19907;-88
2022/05/11 04:57:07;;;;;;;10.07;5.95;;;16.30;99.90;;;;;;5096420;28;20019;-88
2022/05/11 04:59:33;;;;;;;9.13;5.30;;;16.50;99.90;;;;;;5126519;27;20030;-88
2022/05/11 05:02:00;;;;;;;9.27;5.15;;;16.70;99.90;;;;;;5128414;27;20024;-88
2022/05/11 05:04:29;;;;;;;10.93;3.60;;;16.90;99.90;;;;;;5119119;27;20039;-89
2022/05/11 05:06:55;;;;;;;9.85;4.07;;;17.10;99.90;;;;;;5105727;27;20027;-89
2022/05/11 05:09:21;;;;;;;6.30;3.28;;;17.40;99.90;;;;;;5115740;27;20054;-89
2022/05/11 05:11:47;;;;;;;10.40;3.63;;;17.70;99.90;;;;;;5132939;27;20042;-88
2022/05/11 05:14:13;;;;;;;5.45;2.83;;;18.00;99.50;;;;;;5123478;27;20033;-88
2022/05/11 05:16:39;;;;;;;4.95;2.30;;;18.40;97.70;;;;;;5134102;27;20605;-89
2022/05/11 05:19:05;;;;;;;10.00;2.80;;;18.90;96.10;;;;;;5116372;27;20023;-89
2022/05/11 05:21:32;;;;;;;7.22;2.42;;;19.40;93.90;;;;;;5110209;28;20028;-90
2022/05/11 05:23:58;;;;;;;11.40;3.28;;;19.70;92.30;;;;;;5113860;28;20027;-89
2022/05/11 05:26:25;;;;;;;13.38;4.13;;;19.80;90.80;;;;;;5118990;27;20023;-89
2022/05/11 05:31:35;;;;;;;11.75;4.13;;;20.10;87.00;;;;;;5133641;27;20030;-89
2022/05/11 05:34:01;;;;;;;8.73;4.30;;;20.20;86.20;;;;;;5132824;27;20034;-87
2022/05/11 05:36:29;;;;;;;15.35;4.65;;;20.20;86.30;;;;;;5117289;27;20406;-89
2022/05/11 05:38:56;;;;;;;19.58;5.28;;;20.50;86.00;;;;;;5115662;27;20030;-89
2022/05/11 05:41:22;;;;;;;19.33;5.32;;;20.80;87.20;;;;;;5115565;27;20452;-89
2022/05/11 05:43:48;;;;;;;10.52;3.90;;;21.40;79.40;;;;;;5112161;27;20106;-88
2022/05/11 05:46:16;;;;;;;22.65;4.25;;;22.10;73.30;;;;;;5120536;27;20050;-89
2022/05/11 05:48:42;;;;;;;9.52;3.72;;;22.80;68.40;;;;;;5133513;27;20023;-89
2022/05/11 05:51:10;;;;;;;9.35;3.20;;;23.60;62.50;;;;;;5132013;27;20073;-90
2022/05/11 05:53:37;;;;;;;10.52;2.47;;;24.30;56.20;;;;;;5125020;27;20031;-89
2022/05/11 05:56:03;;;;;;;8.88;3.03;;;24.80;50.40;;;;;;5121042;27;20030;-90
2022/05/11 05:58:29;;;;;;;4.28;1.50;;;25.00;48.80;;;;;;5133432;27;20027;-90
2022/05/11 06:00:55;;;;;;;6.95;2.30;;;25.30;47.40;;;;;;5123531;27;20541;-90
2022/05/11 06:03:23;;;;;;;10.75;2.33;;;25.90;44.50;;;;;;5131157;27;20097;-91
2022/05/11 06:05:48;;;;;;;3.63;1.70;;;26.70;39.70;;;;;;5115002;27;20023;-88
2022/05/11 06:08:17;;;;;;;4.45;1.58;;;27.70;37.40;;;;;;5115504;27;20042;-89
2022/05/11 06:10:44;;;;;;;7.10;2.15;;;28.20;36.60;;;;;;5115162;27;20453;-90
2022/05/11 06:13:12;;;;;;;5.70;1.50;;;29.10;34.60;;;;;;5114801;27;20058;-90
2022/05/11 06:15:39;;;;;;;8.20;2.40;;;29.80;32.70;;;;;;5114362;27;20027;-91
2022/05/11 06:18:07;;;;;;;5.93;2.10;;;30.60;31.50;;;;;;5115384;27;20369;-91
2022/05/11 06:20:33;;;;;;;9.85;1.73;;;31.30;30.10;;;;;;5094655;28;20034;-91
2022/05/11 06:22:58;;;;;;;11.20;1.83;;;31.80;29.00;;;;;;5095754;28;20030;-90
2022/05/11 06:25:24;;;;;;;6.38;1.85;;;32.20;27.90;;;;;;5094383;28;20020;-91
2022/05/11 06:27:50;;;;;;;14.88;2.72;;;32.40;27.30;;;;;;5093930;28;20052;-91
2022/05/11 06:30:17;;;;;;;7.32;2.08;;;32.70;26.70;;;;;;5094640;28;20020;-90
2022/05/11 06:32:42;;;;;;;4.28;2.20;;;32.90;26.80;;;;;;5103207;27;20471;-90
2022/05/11 06:35:09;;;;;;;11.50;1.95;;;33.10;26.20;;;;;;5114365;27;20059;-90
2022/05/11 06:37:40;;;;;;;4.82;1.35;;;33.10;25.80;;;;;;5113731;27;20023;-91
2022/05/11 06:40:06;;;;;;;7.47;1.75;;;33.10;25.40;;;;;;5115046;27;20024;-91
2022/05/11 06:42:32;;;;;;;6.63;1.83;;;33.40;25.70;;;;;;5115356;27;20020;-90
2022/05/11 06:44:58;;;;;;;3.42;1.75;;;33.60;25.30;;;;;;5114368;27;20026;-92
2022/05/11 06:47:24;;;;;;;3.85;1.77;;;33.70;24.90;;;;;;5115482;27;20509;-92
2022/05/11 06:49:50;;;;;;;5.22;1.58;;;33.70;24.80;;;;;;5132944;27;20049;-91
2022/05/11 06:52:17;;;;;;;4.15;1.83;;;33.90;24.60;;;;;;5114334;27;20031;-91
2022/05/11 07:00:14;;;;;;;5.78;1.88;;;33.30;24.80;;;;;;5133003;27;20052;-90
2022/05/11 07:02:40;;;;;;;6.78;1.60;;;33.50;25.80;;;;;;5104180;28;20162;-90
2022/05/11 07:05:07;;;;;;;6.88;1.98;;;33.90;25.40;;;;;;5090459;28;20024;-91
2022/05/11 07:07:35;;;;;;;5.25;1.83;;;33.80;25.00;;;;;;5090160;28;20504;-92
2022/05/11 07:10:02;;;;;;;11.27;1.95;;;33.80;25.20;;;;;;5091208;28;20020;-91
2022/05/11 07:12:35;;;;;;;3.80;2.00;;;34.00;25.00;;;;;;5090436;28;20028;-90
2022/05/11 07:15:04;;;;;;;4.38;1.63;;;34.10;24.50;;;;;;5090352;28;20020;-90
2022/05/11 07:17:42;;;;;;;6.07;1.98;;;34.00;24.20;;;;;;5090768;28;20029;-92
2022/05/11 07:20:36;;;;;;;7.20;2.25;;;34.10;24.00;;;;;;5090499;28;20024;-92
2022/05/11 07:23:04;;;;;;;4.80;2.42;;;34.10;23.70;;;;;;5089075;28;20116;-92
2022/05/11 07:25:31;;;;;;;6.97;2.15;;;34.10;24.20;;;;;;5093202;28;20073;-91
2022/05/11 07:27:59;;;;;;;4.60;2.10;;;34.30;23.60;;;;;;5094719;28;20028;-90
2022/05/11 07:30:32;;;;;;;6.05;1.75;;;34.40;22.90;;;;;;5094649;28;20030;-91
2022/05/11 07:32:59;;;;;;;9.38;1.63;;;34.50;22.80;;;;;;5095246;28;20027;-90
2022/05/11 07:35:24;;;;;;;11.38;1.70;;;34.20;21.20;;;;;;5094551;28;20157;-90
2022/05/11 07:37:50;;;;;;;5.80;1.35;;;34.10;22.00;;;;;;5094490;28;20122;-92
2022/05/11 07:40:18;;;;;;;5.10;1.67;;;34.20;20.90;;;;;;5094240;28;20058;-91
2022/05/11 07:42:44;;;;;;;5.75;1.75;;;34.10;20.80;;;;;;5093747;28;20048;-90
2022/05/11 07:45:11;;;;;;;8.55;1.60;;;34.40;20.90;;;;;;5093960;28;20024;-91
2022/05/11 07:47:38;;;;;;;3.85;1.40;;;34.40;20.70;;;;;;5093604;28;20031;-90
2022/05/11 07:50:05;;;;;;;5.22;1.35;;;34.50;20.50;;;;;;5096068;28;20024;-90
2022/05/11 07:52:31;;;;;;;7.82;1.15;;;34.60;20.40;;;;;;5104050;28;20016;-90
2022/05/11 07:54:57;;;;;;;3.17;1.30;;;34.30;20.50;;;;;;5096608;28;20062;-93
2022/05/11 08:00:08;;;;;;;4.30;1.40;;;34.20;19.50;;;;;;5095135;28;20093;-89
2022/05/11 08:02:36;;;;;;;6.57;1.58;;;33.80;20.40;;;;;;5093367;28;20048;-89
2022/05/11 08:05:05;;;;;;;3.65;1.50;;;33.80;20.10;;;;;;5093867;28;20028;-90
2022/05/11 08:07:42;;;;;;;4.30;1.50;;;34.10;20.50;;;;;;5092464;28;20035;-91
2022/05/11 08:10:11;;;;;;;6.82;1.77;;;34.30;19.80;;;;;;5091363;28;20028;-88
2022/05/11 08:12:37;;;;;;;8.00;1.92;;;34.40;19.70;;;;;;5094440;28;20110;-91
2022/05/11 08:15:03;;;;;;;3.78;1.65;;;34.40;20.00;;;;;;5093550;28;20465;-90
2022/05/11 08:17:33;;;;;;;4.50;1.92;;;34.30;20.00;;;;;;5093015;28;20109;-90
2022/05/11 08:19:59;;;;;;;8.82;1.33;;;34.40;20.10;;;;;;5091231;28;20120;-91
2022/05/11 08:22:26;;;;;;;7.72;1.77;;;34.10;20.60;;;;;;5077736;28;20033;-91
2022/05/11 08:24:54;;;;;;;4.85;1.30;;;33.90;20.00;;;;;;5073891;28;20028;-90
2022/05/11 08:27:23;;;;;;;4.93;1.35;;;33.90;20.30;;;;;;5073592;28;20585;-89
2022/05/11 08:35:18;;;;;;;6.93;1.50;;;33.90;20.30;;;;;;5074160;28;20078;-91
2022/05/11 08:37:44;;;;;;;3.17;1.17;;;34.20;20.60;;;;;;5072084;28;20024;-92
2022/05/11 08:40:22;;;;;;;2.75;1.20;;;34.20;20.30;;;;;;5083415;28;20034;-89
2022/05/11 08:42:48;;;;;;;5.13;1.42;;;34.30;20.00;;;;;;5092660;28;20089;-91
2022/05/11 08:45:14;;;;;;;10.25;1.20;;;34.50;19.50;;;;;;5093381;28;20048;-90
2022/05/11 08:47:45;;;;;;;5.00;1.52;;;34.50;19.40;;;;;;5092753;28;20080;-91
2022/05/11 08:50:26;;;;;;;4.82;1.45;;;34.40;20.00;;;;;;5090396;28;20024;-88
2022/05/11 08:53:07;;;;;;;6.13;1.40;;;34.50;19.90;;;;;;5092754;28;20021;-90
2022/05/11 08:55:49;;;;;;;9.80;2.22;;;34.60;19.20;;;;;;5092062;28;20081;-91
2022/05/11 08:58:52;;;;;;;4.85;1.45;;;34.30;19.50;;;;;;5094150;28;20349;-89
2022/05/11 09:01:54;;;;;;;10.40;1.50;;;34.20;19.70;;;;;;5032027;28;20516;-89
2022/05/11 09:04:30;;;;;;;4.50;1.45;;;34.30;19.80;;;;;;5093172;28;20051;-91
2022/05/11 09:06:57;;;;;;;4.70;1.00;;;34.40;19.10;;;;;;5093079;28;20030;-91
2022/05/11 09:09:24;;;;;;;4.28;1.27;;;34.30;19.50;;;;;;5092640;28;20581;-89
2022/05/11 09:11:53;;;;;;;7.15;1.35;;;34.20;19.60;;;;;;5092925;28;20023;-90
2022/05/11 09:14:30;;;;;;;3.30;1.67;;;34.40;20.30;;;;;;5091884;28;20550;-90
2022/05/11 09:16:56;;;;;;;7.88;1.83;;;34.10;20.60;;;;;;5093245;28;20458;-89
2022/05/11 09:19:31;;;;;;;13.23;1.77;;;34.60;20.20;;;;;;5093024;28;20059;-91
2022/05/11 09:22:14;;;;;;;4.60;1.63;;;34.20;20.20;;;;;;5093984;28;20393;-89
2022/05/11 09:24:52;;;;;;;5.93;1.75;;;33.90;20.00;;;;;;5092665;28;20511;-91
2022/05/11 09:27:34;;;;;;;3.08;1.33;;;34.10;20.60;;;;;;5092890;28;20020;-91
2022/05/11 09:30:17;;;;;;;5.85;1.60;;;33.90;20.10;;;;;;5092878;28;20032;-90
2022/05/11 09:32:44;;;;;;;4.47;1.20;;;34.10;19.90;;;;;;5092036;28;20047;-91
2022/05/11 09:35:24;;;;;;;4.80;1.35;;;33.90;20.40;;;;;;5092377;28;20278;-91
2022/05/11 09:38:10;;;;;;;3.80;1.13;;;34.20;19.90;;;;;;5092143;28;20039;-90
2022/05/11 09:40:54;;;;;;;;;;;34.20;20.00;;;;;;5092346;28;20706;-90
2022/05/11 09:43:33;;;;;;;4.28;1.67;;;34.10;19.60;;;;;;5071662;28;19942;-93
2022/05/11 09:46:00;;;;;;;8.70;1.67;;;34.10;20.00;;;;;;5094488;28;20032;-91
2022/05/11 09:48:31;;;;;;;7.32;1.85;;;34.40;20.20;;;;;;5092676;28;20024;-94
2022/05/11 09:51:22;;;;;;;6.35;1.52;;;34.60;20.30;;;;;;5091863;28;20031;-90
2022/05/11 09:53:52;;;;;;;5.10;1.30;;;34.50;19.80;;;;;;5092062;28;20065;-91
2022/05/11 09:56:24;;;;;;;6.65;1.52;;;34.50;20.30;;;;;;5092721;28;20437;-90
2022/05/11 09:58:50;;;;;;;5.82;1.45;;;34.60;20.10;;;;;;5089529;28;20038;-91
2022/05/11 10:01:25;;;;;;;12.45;1.60;;;34.60;19.90;;;;;;5091816;28;20463;-89
2022/05/11 10:03:56;;;;;;;6.07;1.58;;;34.50;19.70;;;;;;5091925;28;20048;-90
2022/05/11 10:06:24;;;;;;;12.20;1.83;;;34.20;20.00;;;;;;5091463;28;20028;-91
2022/05/11 10:08:52;;;;;;;3.83;1.63;;;33.60;20.50;;;;;;5091917;28;20077;-91
2022/05/11 10:11:31;;;;;;;6.95;1.50;;;32.90;21.30;;;;;;5090598;28;20024;-88
2022/05/11 10:13:59;;;;;;;9.38;1.50;;;32.20;21.60;;;;;;5091178;28;20396;-88
2022/05/11 10:22:11;;;;;;;3.30;0.88;;;31.00;24.00;;;;;;5092688;28;20047;-91
2022/05/11 10:24:49;;;;;;;3.38;1.48;;;30.80;23.40;;;;;;5091045;28;20028;-91
2022/05/11 10:27:24;;;;;;;2.80;1.38;;;30.40;23.60;;;;;;5091418;28;20492;-91
2022/05/11 10:29:50;;;;;;;8.05;1.63;;;30.20;23.90;;;;;;5091961;28;20028;-91
2022/05/11 10:32:31;;;;;;;3.78;1.40;;;30.00;24.20;;;;;;5087059;28;20113;-90
2022/05/11 10:35:15;;;;;;;6.00;1.50;;;29.80;24.50;;;;;;5070547;28;20485;-92
2022/05/11 10:38:18;;;;;;;5.60;1.70;;;29.70;25.20;;;;;;5087023;28;20400;-89
2022/05/11 10:41:21;;;;;;;4.72;1.48;;;29.60;25.00;;;;;;5060286;28;20036;-88
2022/05/11 10:44:00;;;;;;;4.38;1.55;;;29.40;24.30;;;;;;5092610;28;20035;-89
2022/05/11 10:46:37;;;;;;;5.85;1.40;;;29.20;24.60;;;;;;5090904;28;20027;-89
2022/05/11 10:49:32;;;;;;;3.92;1.52;;;29.00;25.20;;;;;;5091203;28;20028;-90
2022/05/11 10:52:26;;;;;;;6.68;1.40;;;28.90;25.60;;;;;;5090365;28;20035;-89
2022/05/11 10:55:15;;;;;;;4.80;1.30;;;28.90;25.90;;;;;;5091748;28;20028;-88
2022/05/11 10:58:14;;;;;;;5.75;1.50;;;28.80;25.50;;;;;;5077682;28;20477;-89
2022/05/11 11:00:47;;;;;;;5.68;1.75;;;28.70;24.90;;;;;;5075176;28;20039;-91
2022/05/11 11:03:34;;;;;;;5.93;1.23;;;28.60;24.90;;;;;;5081864;28;20124;-89
2022/05/11 11:09:13;;;;;;;7.07;1.73;;;28.40;25.30;;;;;;5073392;28;20043;-90
2022/05/11 11:12:00;;;;;;;4.20;1.60;;;28.40;24.90;;;;;;5070799;28;20035;-92
2022/05/11 11:14:31;;;;;;;5.18;1.83;;;28.40;25.80;;;;;;5087073;28;20025;-90
2022/05/11 11:16:58;;;;;;;6.50;1.95;;;28.30;25.70;;;;;;5087604;28;20032;-91
2022/05/11 11:19:24;;;;;;;10.27;1.35;;;28.40;26.50;;;;;;5086929;28;20378;-92
2022/05/11 11:21:51;;;;;;;4.53;1.38;;;28.40;25.20;;;;;;5087523;28;20526;-89
2022/05/11 11:24:29;;;;;;;2.85;1.33;;;28.40;24.90;;;;;;5072346;28;20051;-91
2022/05/11 11:26:58;;;;;;;7.43;1.50;;;28.40;25.40;;;;;;5087339;28;20017;-89
2022/05/11 11:29:29;;;;;;;5.95;1.70;;;28.50;25.90;;;;;;5072100;28;20079;-91
2022/05/11 11:31:58;;;;;;;4.32;1.25;;;28.50;25.40;;;;;;5070196;28;20028;-89
2022/05/11 11:34:27;;;;;;;4.88;1.42;;;28.50;25.60;;;;;;5068173;28;20032;-93
2022/05/11 11:36:55;;;;;;;5.88;1.50;;;28.60;26.20;;;;;;5086639;28;20025;-90
2022/05/11 11:39:58;;;;;;;6.65;1.70;;;28.60;26.00;;;;;;5089224;28;20052;-92
2022/05/11 11:42:53;;;;;;;4.38;1.85;;;28.50;25.60;;;;;;5070909;28;20102;-90
2022/05/11 11:45:29;;;;;;;7.53;1.20;;;28.60;26.20;;;;;;5053545;28;20032;-92
2022/05/11 11:48:01;;;;;;;7.25;1.65;;;28.60;25.70;;;;;;5070944;28;20116;-90
2022/05/11 11:51:09;;;;;;;5.03;1.20;;;28.60;25.90;;;;;;5071027;28;20028;-90
2022/05/11 11:53:55;;;;;;;5.90;1.77;;;28.70;26.10;;;;;;4992268;28;20528;-89
2022/05/11 11:56:23;;;;;;;4.10;1.27;;;28.60;25.70;;;;;;4993198;28;20030;-90
2022/05/11 11:59:03;;;;;;;5.90;1.20;;;28.60;26.20;;;;;;5041398;28;20116;-88
2022/05/11 12:01:32;;;;;;;5.40;1.48;;;28.70;25.90;;;;;;5086574;28;20031;-88
2022/05/11 12:04:01;;;;;;;3.95;1.48;;;28.60;26.20;;;;;;5087234;28;20049;-91
2022/05/11 12:15:01;;;;;;;4.57;1.67;;;28.60;26.10;;;;;;5077340;28;20108;-92
2022/05/11 12:17:44;;;;;;;5.80;1.67;;;28.60;26.00;;;;;;5094679;28;20058;-92
2022/05/11 12:20:17;;;;;;;4.15;1.38;;;28.60;26.20;;;;;;5094514;28;20032;-91
2022/05/11 12:22:50;;;;;;;8.80;1.98;;;28.60;26.70;;;;;;5093991;28;20032;-91
2022/05/11 12:25:30;;;;;;;4.93;1.60;;;28.60;26.70;;;;;;5093058;28;20036;-92
2022/05/11 12:28:00;;;;;;;7.70;1.45;;;28.60;26.50;;;;;;5093967;28;20034;-90
2022/05/11 12:30:39;;;;;;;3.83;1.55;;;28.50;26.70;;;;;;5093263;28;20012;-89
2022/05/11 12:33:07;;;;;;;6.07;1.55;;;28.60;26.30;;;;;;5093316;28;20800;-91
2022/05/11 12:35:34;;;;;;;5.57;1.42;;;28.50;25.90;;;;;;5094174;28;20020;-92
2022/05/11 12:38:03;;;;;;;5.72;1.05;;;28.40;26.30;;;;;;5094304;28;20036;-92
2022/05/11 12:40:33;;;;;;;6.68;1.50;;;28.40;26.20;;;;;;5094528;28;20020;-91
2022/05/11 12:43:07;;;;;;;8.10;1.30;;;28.20;25.70;;;;;;5094829;28;20024;-91
2022/05/11 12:45:42;;;;;;;5.00;1.52;;;28.20;26.40;;;;;;5092962;28;20523;-91
2022/05/11 12:48:15;;;;;;;5.00;1.45;;;28.30;26.90;;;;;;5094793;28;20614;-91
2022/05/11 12:50:56;;;;;;;8.77;1.80;;;28.30;27.10;;;;;;5092576;28;20039;-90
2022/05/11 12:53:25;;;;;;;14.77;1.80;;;28.30;26.50;;;;;;5093140;28;20055;-90
2022/05/11 12:55:55;;;;;;;4.40;1.40;;;28.30;26.20;;;;;;5092812;28;20028;-91
2022/05/11 12:58:27;;;;;;;3.22;1.42;;;28.30;26.10;;;;;;5093271;28;20038;-92
2022/05/11 13:01:04;;;;;;;6.35;1.95;;;28.20;27.00;;;;;;5079100;28;20027;-92
2022/05/11 13:03:36;;;;;;;7.68;1.75;;;28.20;27.10;;;;;;5084813;28;20051;-91
2022/05/11 13:06:18;;;;;;;3.42;1.60;;;28.10;27.50;;;;;;5094030;28;20028;-91
2022/05/11 13:08:46;;;;;;;5.55;1.70;;;28.20;27.00;;;;;;5088097;28;20024;-92
2022/05/11 13:11:17;;;;;;;5.70;1.52;;;28.30;27.00;;;;;;5093360;28;20607;-90
2022/05/11 13:13:45;;;;;;;3.75;1.27;;;28.20;26.80;;;;;;5093063;28;20028;-90
2022/05/11 13:16:18;;;;;;;2.95;1.30;;;28.30;26.90;;;;;;5093497;28;20028;-91
2022/05/11 13:18:45;;;;;;;5.25;1.88;;;28.30;26.50;;;;;;5093337;28;20111;-91
2022/05/11 13:21:10;;;;;;;3.55;1.20;;;28.30;27.20;;;;;;5092427;28;20510;-93
2022/05/11 13:23:46;;;;;;;5.65;1.65;;;28.30;27.60;;;;;;5091531;28;20036;-89
2022/05/11 13:26:31;;;;;;;7.40;1.95;;;28.40;27.70;;;;;;5092366;28;20515;-93
2022/05/11 13:29:08;;;;;;;3.05;1.35;;;28.50;27.50;;;;;;5072443;28;20048;-91
2022/05/11 13:31:35;;;;;;;3.60;1.20;;;28.50;27.20;;;;;;5079778;28;20024;-91
2022/05/11 13:34:04;;;;;;;8.75;1.38;;;28.60;27.60;;;;;;5088913;28;20020;-92
2022/05/11 13:36:43;;;;;;;2.67;1.00;;;28.40;27.70;;;;;;5092514;28;20133;-91
2022/05/11 13:39:12;;;;;;;3.08;1.33;;;28.40;28.00;;;;;;5081265;28;20134;-91
2022/05/11 13:41:58;;;;;;;4.07;1.60;;;28.30;27.60;;;;;;5072001;28;20055;-91
2022/05/11 13:44:34;;;;;;;4.10;1.60;;;28.10;27.30;;;;;;5071842;28;20035;-90
2022/05/11 13:49:47;;;;;;;4.95;2.45;;;28.10;27.50;;;;;;5073290;28;20775;-91
2022/05/11 13:52:31;;;;;;;7.03;1.35;;;28.10;27.50;;;;;;5088093;28;20024;-92